Time;durP1;ratioP1;P1;durP2;ratioP2;P2;SDS_P1;SDS_P2;PMS_P1;PMS_P2;Temp;Humidity;BMP_temperature;BMP_pressure;BME280_temperature;BME280_humidity;BME280_pressure;Samples;Min_cycle;Max_cycle;Signal;HPM_P1;HPM_P2
2023/03/07 00:04:05;;;;;;;;;;;;;;;;;;10448021;28;19920;-73
2023/03/07 00:09:26;;;;;;;;;;;;;;;;;;10451793;28;19920;-73
2023/03/07 00:14:46;;;;;;;;;;;;;;;;;;10454037;28;19922;-73
2023/03/07 00:20:07;;;;;;;;;;;;;;;;;;10460059;28;19917;-73
2023/03/07 00:25:28;;;;;;;;;;;;;;;;;;10463262;28;20202;-73
2023/03/07 00:30:48;;;;;;;;;;;;;;;;;;10444172;28;19921;-73
2023/03/07 00:36:09;;;;;;;;;;;;;;;;;;10453966;28;19927;-73
2023/03/07 00:41:30;;;;;;;;;;;;;;;;;;10455361;28;19917;-73
2023/03/07 00:46:50;;;;;;;;;;;;;;;;;;10447943;28;20387;-73
2023/03/07 00:52:11;;;;;;;;;;;;;;;;;;10450102;28;19925;-73
2023/03/07 00:57:32;;;;;;;;;;;;;;;;;;10450107;28;20268;-73
2023/03/07 01:02:52;;;;;;;;;;;;;;;;;;10441909;28;19916;-73
2023/03/07 01:08:13;;;;;;;;;;;;;;;;;;10448519;28;20354;-73
2023/03/07 01:13:34;;;;;;;;;;;;;;;;;;10448491;28;19913;-73
2023/03/07 01:18:54;;;;;;;;;;;;;;;;;;10454642;28;19921;-73
2023/03/07 01:24:15;;;;;;;;;;;;;;;;;;10448066;28;20495;-73
2023/03/07 01:29:36;;;;;;;;;;;;;;;;;;10447659;28;19940;-73
2023/03/07 01:34:57;;;;;;;;;;;;;;;;;;10456538;28;19921;-73
2023/03/07 01:40:17;;;;;;;;;;;;;;;;;;10455168;28;19916;-73
2023/03/07 01:45:38;;;;;;;;;;;;;;;;;;10446429;28;19919;-73
2023/03/07 01:50:59;;;;;;;;;;;;;;;;;;10429654;28;20352;-73
2023/03/07 01:56:19;;;;;;;;;;;;;;;;;;10432773;28;19931;-73
2023/03/07 02:01:40;;;;;;;;;;;;;;;;;;10447790;28;19913;-73
2023/03/07 02:07:01;;;;;;;;;;;;;;;;;;10450657;28;19955;-73
2023/03/07 02:12:21;;;;;;;;;;;;;;;;;;10451961;28;19919;-73
2023/03/07 02:17:42;;;;;;;;;;;;;;;;;;10454735;28;20299;-74
2023/03/07 02:23:03;;;;;;;;;;;;;;;;;;10442093;28;19943;-74
2023/03/07 02:28:24;;;;;;;;;;;;;;;;;;10441892;28;19913;-74
2023/03/07 02:33:44;;;;;;;;;;;;;;;;;;10442295;28;19912;-73
2023/03/07 02:39:05;;;;;;;;;;;;;;;;;;10443827;28;19917;-73
2023/03/07 02:44:26;;;;;;;;;;;;;;;;;;10463774;28;19921;-74
2023/03/07 02:49:47;;;;;;;;;;;;;;;;;;10446917;28;19920;-74
2023/03/07 02:55:07;;;;;;;;;;;;;;;;;;10464164;28;19924;-73
2023/03/07 03:00:28;;;;;;;;;;;;;;;;;;10451307;28;19935;-73
2023/03/07 03:05:49;;;;;;;;;;;;;;;;;;10449164;28;20390;-74
2023/03/07 03:11:09;;;;;;;;;;;;;;;;;;10452421;28;20292;-77
2023/03/07 03:16:30;;;;;;;;;;;;;;;;;;10449734;28;19964;-76
2023/03/07 03:21:51;;;;;;;;;;;;;;;;;;10441624;28;19922;-76
2023/03/07 03:27:12;;;;;;;;;;;;;;;;;;10456235;28;19916;-76
2023/03/07 03:32:32;;;;;;;;;;;;;;;;;;10451607;28;19920;-76
2023/03/07 03:37:53;;;;;;;;;;;;;;;;;;10462559;28;19947;-76
2023/03/07 03:43:14;;;;;;;;;;;;;;;;;;10463815;28;19917;-74
2023/03/07 03:48:34;;;;;;;;;;;;;;;;;;10466039;28;20287;-74
2023/03/07 03:53:58;;;;;;;;;;;;;;;;;;10467068;28;19987;-74
2023/03/07 03:59:19;;;;;;;;;;;;;;;;;;10460499;28;19931;-73
2023/03/07 04:04:40;;;;;;;;;;;;;;;;;;10463314;28;19924;-73
2023/03/07 04:10:00;;;;;;;;;;;;;;;;;;10448542;28;19978;-73
2023/03/07 04:15:21;;;;;;;;;;;;;;;;;;10449515;28;19916;-73
2023/03/07 04:20:42;;;;;;;;;;;;;;;;;;10452631;28;19913;-72
2023/03/07 04:26:02;;;;;;;;;;;;;;;;;;10439965;28;20295;-73
2023/03/07 04:31:23;;;;;;;;;;;;;;;;;;10450987;28;19928;-73
2023/03/07 04:36:44;;;;;;;;;;;;;;;;;;10448504;28;19932;-73
2023/03/07 04:42:04;;;;;;;;;;;;;;;;;;10454599;28;19917;-73
2023/03/07 04:47:25;;;;;;;;;;;;;;;;;;10441836;28;21485;-73
2023/03/07 04:52:46;;;;;;;;;;;;;;;;;;10446585;28;20496;-73
2023/03/07 04:58:11;;;;;;;;;;;;;;;;;;10443919;28;19923;-73
2023/03/07 05:03:32;;;;;;;;;;;;;;;;;;10448137;28;19913;-74
2023/03/07 05:08:53;;;;;;;;;;;;;;;;;;10450720;28;19921;-74
2023/03/07 05:14:13;;;;;;;;;;;;;;;;;;10447711;28;19917;-74
2023/03/07 05:19:34;;;;;;;;;;;;;;;;;;10445490;28;19986;-73
2023/03/07 05:24:55;;;;;;;;;;;;;;;;;;10443422;28;19913;-74
2023/03/07 05:30:16;;;;;;;;;;;;;;;;;;10449591;28;19935;-74
2023/03/07 05:35:37;;;;;;;;;;;;;;;;;;10447592;28;20309;-74
2023/03/07 05:40:58;;;;;;;;;;;;;;;;;;10442452;28;19924;-74
2023/03/07 05:46:19;;;;;;;;;;;;;;;;;;10443913;28;19927;-72
2023/03/07 05:51:40;;;;;;;;;;;;;;;;;;10457190;28;19939;-73
2023/03/07 05:57:00;;;;;;;;;;;;;;;;;;10440932;28;19920;-73
2023/03/07 06:02:21;;;;;;;;;;;;;;;;;;10452881;28;19939;-73
2023/03/07 06:07:42;;;;;;;;;;;;;;;;;;10440724;28;21164;-72
2023/03/07 06:13:03;;;;;;;;;;;;;;;;;;10444453;28;20295;-73
2023/03/07 06:18:24;;;;;;;;;;;;;;;;;;10442214;28;19927;-72
2023/03/07 06:23:44;;;;;;;;;;;;;;;;;;10442868;28;19913;-72
2023/03/07 06:29:05;;;;;;;;;;;;;;;;;;10440688;28;19913;-72
2023/03/07 06:34:26;;;;;;;;;;;;;;;;;;10456302;28;19924;-72
2023/03/07 06:39:47;;;;;;;;;;;;;;;;;;10440907;28;19916;-72
2023/03/07 06:45:07;;;;;;;;;;;;;;;;;;10443397;28;19923;-72
2023/03/07 06:50:28;;;;;;;;;;;;;;;;;;10444269;28;19925;-73
2023/03/07 06:55:49;;;;;;;;;;;;;;;;;;10460989;28;19924;-72
2023/03/07 07:01:10;;;;;;;;;;;;;;;;;;10460394;28;19927;-72
2023/03/07 07:06:30;;;;;;;;;;;;;;;;;;10454131;28;20299;-73
2023/03/07 07:11:51;;;;;;;;;;;;;;;;;;10449952;28;19920;-73
2023/03/07 07:17:12;;;;;;;;;;;;;;;;;;10456875;28;19957;-73
2023/03/07 07:22:32;;;;;;;;;;;;;;;;;;10455011;28;20418;-73
2023/03/07 07:27:53;;;;;;;;;;;;;;;;;;10462937;28;19921;-73
2023/03/07 07:33:14;;;;;;;;;;;;;;;;;;10458212;28;19917;-72
2023/03/07 07:38:35;;;;;;;;;;;;;;;;;;10458996;28;20365;-73
2023/03/07 07:43:56;;;;;;;;;;;;;;;;;;10426782;28;19913;-73
2023/03/07 07:49:16;;;;;;;;;;;;;;;;;;10450815;28;19920;-73
2023/03/07 07:54:37;;;;;;;;;;;;;;;;;;10451142;28;19913;-72
2023/03/07 07:59:58;;;;;;;;;;;;;;;;;;10452961;28;19968;-72
2023/03/07 08:05:18;;;;;;;;;;;;;;;;;;10485159;28;19916;-71
2023/03/07 08:10:41;;;;;;;;;;;;;;;;;;10461885;28;19915;-72
2023/03/07 08:16:02;;;;;;;;;;;;;;;;;;10460479;28;19925;-71
2023/03/07 08:21:23;;;;;;;;;;;;;;;;;;10469732;28;19919;-73
2023/03/07 08:26:43;;;;;;;;;;;;;;;;;;10452887;28;19912;-73
2023/03/07 08:32:04;;;;;;;;;;;;;;;;;;10453448;28;19917;-72
2023/03/07 08:37:25;;;;;;;;;;;;;;;;;;10453236;28;19920;-73
2023/03/07 08:42:46;;;;;;;;;;;;;;;;;;10453834;28;19909;-73
2023/03/07 08:48:06;;;;;;;;;;;;;;;;;;10458648;28;20268;-73
2023/03/07 08:53:27;;;;;;;;;;;;;;;;;;10453708;28;19925;-73
2023/03/07 08:58:48;;;;;;;;;;;;;;;;;;10454222;28;19916;-73
2023/03/07 09:04:08;;;;;;;;;;;;;;;;;;10423804;28;20379;-72
2023/03/07 09:09:29;;;;;;;;;;;;;;;;;;10453190;28;19909;-72
2023/03/07 09:14:50;;;;;;;;;;;;;;;;;;10466007;28;19920;-73
2023/03/07 09:20:10;;;;;;;;;;;;;;;;;;10477325;28;19921;-73
2023/03/07 09:25:31;;;;;;;;;;;;;;;;;;10452579;28;19913;-73
2023/03/07 09:30:52;;;;;;;;;;;;;;;;;;10451162;28;19982;-73
2023/03/07 09:36:13;;;;;;;;;;;;;;;;;;10451805;28;19916;-71
2023/03/07 09:41:33;;;;;;;;;;;;;;;;;;10452544;28;19917;-73
2023/03/07 09:46:54;;;;;;;;;;;;;;;;;;10475687;28;19924;-73
2023/03/07 09:52:15;;;;;;;;;;;;;;;;;;10483521;28;19920;-72
2023/03/07 09:57:35;;;;;;;;;;;;;;;;;;10451431;28;20339;-73
2023/03/07 10:02:56;;;;;;;;;;;;;;;;;;10420291;28;19917;-73
2023/03/07 10:08:19;;;;;;;;;;;;;;;;;;10423103;28;20545;-73
2023/03/07 10:13:40;;;;;;;;;;;;;;;;;;10448780;28;19909;-72
2023/03/07 10:19:00;;;;;;;;;;;;;;;;;;10415481;28;19913;-73
2023/03/07 10:24:21;;;;;;;;;;;;;;;;;;10450882;28;20291;-72
2023/03/07 10:29:42;;;;;;;;;;;;;;;;;;10449707;28;19908;-73
2023/03/07 10:35:03;;;;;;;;;;;;;;;;;;10450657;28;19916;-73
2023/03/07 10:40:24;;;;;;;;;;;;;;;;;;10450450;28;19912;-72
2023/03/07 10:45:45;;;;;;;;;;;;;;;;;;10459860;28;19923;-72
2023/03/07 10:51:05;;;;;;;;;;;;;;;;;;10450081;28;19925;-73
2023/03/07 10:56:26;;;;;;;;;;;;;;;;;;10451002;28;19924;-73
2023/03/07 11:01:47;;;;;;;;;;;;;;;;;;10440712;28;20466;-73
2023/03/07 11:07:07;;;;;;;;;;;;;;;;;;10412193;28;20209;-73
2023/03/07 11:12:28;;;;;;;;;;;;;;;;;;10440341;28;19916;-73
2023/03/07 11:17:49;;;;;;;;;;;;;;;;;;10482829;28;19987;-73
2023/03/07 11:23:09;;;;;;;;;;;;;;;;;;10409206;28;19960;-73
2023/03/07 11:28:30;;;;;;;;;;;;;;;;;;10407694;28;19916;-72
2023/03/07 11:33:51;;;;;;;;;;;;;;;;;;10448959;28;19909;-73
2023/03/07 11:39:11;;;;;;;;;;;;;;;;;;10450718;28;19913;-73
2023/03/07 11:44:32;;;;;;;;;;;;;;;;;;10459466;28;19917;-72
2023/03/07 11:49:53;;;;;;;;;;;;;;;;;;10455505;28;20441;-73
2023/03/07 11:55:14;;;;;;;;;;;;;;;;;;10457043;28;19920;-73
2023/03/07 12:00:35;;;;;;;;;;;;;;;;;;10464199;28;19921;-73
2023/03/07 12:05:56;;;;;;;;;;;;;;;;;;10457574;28;19924;-73
2023/03/07 12:11:17;;;;;;;;;;;;;;;;;;10441429;28;19909;-73
2023/03/07 12:16:37;;;;;;;;;;;;;;;;;;10442676;28;20379;-73
2023/03/07 12:21:58;;;;;;;;;;;;;;;;;;10454403;28;19916;-73
2023/03/07 12:27:22;;;;;;;;;;;;;;;;;;10454557;28;19909;-73
2023/03/07 12:32:42;;;;;;;;;;;;;;;;;;10451975;28;19917;-73
2023/03/07 12:38:03;;;;;;;;;;;;;;;;;;10452309;28;20356;-73
2023/03/07 12:43:24;;;;;;;;;;;;;;;;;;10451996;28;20372;-73
2023/03/07 12:48:45;;;;;;;;;;;;;;;;;;10454844;28;19913;-73
2023/03/07 12:54:06;;;;;;;;;;;;;;;;;;10451804;28;19925;-73
2023/03/07 12:59:27;;;;;;;;;;;;;;;;;;10446423;28;19912;-73
2023/03/07 13:04:47;;;;;;;;;;;;;;;;;;10452162;28;20314;-73
2023/03/07 13:10:09;;;;;;;;;;;;;;;;;;10451903;28;19913;-73
2023/03/07 13:15:30;;;;;;;;;;;;;;;;;;10449501;28;19971;-73
2023/03/07 13:20:51;;;;;;;;;;;;;;;;;;10433400;28;19920;-73
2023/03/07 13:26:11;;;;;;;;;;;;;;;;;;10452944;28;19909;-73
2023/03/07 13:31:32;;;;;;;;;;;;;;;;;;10448760;28;19921;-73
2023/03/07 13:36:53;;;;;;;;;;;;;;;;;;10455942;28;19924;-73
2023/03/07 13:42:14;;;;;;;;;;;;;;;;;;10474104;28;19919;-73
2023/03/07 13:47:34;;;;;;;;;;;;;;;;;;10469205;28;19923;-73
2023/03/07 13:52:55;;;;;;;;;;;;;;;;;;10451168;28;20090;-73
2023/03/07 13:58:16;;;;;;;;;;;;;;;;;;10451568;28;20396;-73
2023/03/07 14:03:37;;;;;;;;;;;;;;;;;;10451293;28;19912;-73
2023/03/07 14:08:58;;;;;;;;;;;;;;;;;;10469863;28;20272;-74
2023/03/07 14:14:18;;;;;;;;;;;;;;;;;;10444620;28;19928;-73
2023/03/07 14:19:40;;;;;;;;;;;;;;;;;;10452335;28;19975;-73
2023/03/07 14:25:00;;;;;;;;;;;;;;;;;;10447814;28;19912;-73
2023/03/07 14:30:21;;;;;;;;;;;;;;;;;;10450272;28;19908;-73
2023/03/07 14:35:42;;;;;;;;;;;;;;;;;;10450161;28;19913;-73
2023/03/07 14:41:02;;;;;;;;;;;;;;;;;;10486750;28;19920;-73
2023/03/07 14:46:23;;;;;;;;;;;;;;;;;;10476648;28;19913;-73
2023/03/07 14:51:44;;;;;;;;;;;;;;;;;;10450394;28;20379;-73
2023/03/07 14:57:04;;;;;;;;;;;;;;;;;;10449453;28;20027;-73
2023/03/07 15:02:25;;;;;;;;;;;;;;;;;;10422356;28;19921;-73
2023/03/07 15:07:46;;;;;;;;;;;;;;;;;;10444383;28;19912;-73
2023/03/07 15:13:07;;;;;;;;;;;;;;;;;;10462168;28;19916;-73
2023/03/07 15:18:27;;;;;;;;;;;;;;;;;;10418780;28;19927;-73
2023/03/07 15:23:48;;;;;;;;;;;;;;;;;;10457124;28;19909;-72
2023/03/07 15:29:09;;;;;;;;;;;;;;;;;;10455940;28;19917;-73
2023/03/07 15:34:29;;;;;;;;;;;;;;;;;;10416603;28;19942;-73
2023/03/07 15:39:50;;;;;;;;;;;;;;;;;;10451165;28;19923;-70
2023/03/07 15:45:11;;;;;;;;;;;;;;;;;;10455703;28;19920;-68
2023/03/07 15:50:32;;;;;;;;;;;;;;;;;;10452645;28;19925;-68
2023/03/07 15:55:53;;;;;;;;;;;;;;;;;;10452996;28;19913;-68
2023/03/07 16:01:13;;;;;;;;;;;;;;;;;;10452274;28;20330;-68
2023/03/07 16:06:34;;;;;;;;;;;;;;;;;;10452761;28;19951;-68
2023/03/07 16:11:55;;;;;;;;;;;;;;;;;;10450425;28;19924;-69
2023/03/07 16:17:15;;;;;;;;;;;;;;;;;;10448265;28;19917;-69
2023/03/07 16:22:36;;;;;;;;;;;;;;;;;;10448101;28;19913;-69
2023/03/07 16:27:57;;;;;;;;;;;;;;;;;;10462489;28;20363;-69
2023/03/07 16:33:17;;;;;;;;;;;;;;;;;;10468858;28;19917;-69
2023/03/07 16:38:38;;;;;;;;;;;;;;;;;;10438108;28;19917;-69
2023/03/07 16:44:01;;;;;;;;;;;;;;;;;;10456877;28;20232;-69
2023/03/07 16:49:22;;;;;;;;;;;;;;;;;;10450209;28;19940;-69
2023/03/07 16:54:42;;;;;;;;;;;;;;;;;;10460037;28;19940;-71
2023/03/07 17:00:03;;;;;;;;;;;;;;;;;;10444748;28;19917;-69
2023/03/07 17:05:24;;;;;;;;;;;;;;;;;;10446605;28;19942;-71
2023/03/07 17:10:45;;;;;;;;;;;;;;;;;;10444326;28;19923;-71
2023/03/07 17:16:05;;;;;;;;;;;;;;;;;;10457185;28;19917;-71
2023/03/07 17:21:26;;;;;;;;;;;;;;;;;;10448910;28;20399;-71
2023/03/07 17:26:47;;;;;;;;;;;;;;;;;;10442329;28;21308;-71
2023/03/07 17:32:07;;;;;;;;;;;;;;;;;;10460076;28;20002;-69
2023/03/07 17:37:28;;;;;;;;;;;;;;;;;;10444919;28;20006;-69
2023/03/07 17:42:49;;;;;;;;;;;;;;;;;;10444438;28;19912;-69
2023/03/07 17:48:10;;;;;;;;;;;;;;;;;;10449828;28;19913;-70
2023/03/07 17:53:31;;;;;;;;;;;;;;;;;;10449620;28;19921;-69
2023/03/07 17:58:51;;;;;;;;;;;;;;;;;;10449912;28;19920;-69
2023/03/07 18:04:12;;;;;;;;;;;;;;;;;;10434821;28;19917;-69
2023/03/07 18:09:33;;;;;;;;;;;;;;;;;;10456844;28;19917;-69
2023/03/07 18:14:53;;;;;;;;;;;;;;;;;;10451987;28;19920;-69
2023/03/07 18:20:14;;;;;;;;;;;;;;;;;;10443962;28;19924;-69
2023/03/07 18:25:35;;;;;;;;;;;;;;;;;;10446004;28;19917;-69
2023/03/07 18:30:56;;;;;;;;;;;;;;;;;;10442538;28;19913;-70
2023/03/07 18:36:16;;;;;;;;;;;;;;;;;;10453123;28;20386;-70
2023/03/07 18:41:37;;;;;;;;;;;;;;;;;;10490563;28;19920;-70
2023/03/07 18:46:58;;;;;;;;;;;;;;;;;;10472264;28;19913;-70
2023/03/07 18:52:18;;;;;;;;;;;;;;;;;;10443510;28;19924;-72
2023/03/07 18:57:39;;;;;;;;;;;;;;;;;;10451519;28;19970;-72
2023/03/07 19:03:00;;;;;;;;;;;;;;;;;;10444735;28;20355;-72
2023/03/07 19:08:20;;;;;;;;;;;;;;;;;;10483263;28;19920;-73
2023/03/07 19:13:41;;;;;;;;;;;;;;;;;;10435657;28;20383;-73
2023/03/07 19:19:02;;;;;;;;;;;;;;;;;;10455953;28;19920;-73
2023/03/07 19:24:23;;;;;;;;;;;;;;;;;;10453519;28;19913;-73
2023/03/07 19:29:44;;;;;;;;;;;;;;;;;;10456195;28;19913;-72
2023/03/07 19:35:04;;;;;;;;;;;;;;;;;;10435825;28;19962;-73
2023/03/07 19:40:27;;;;;;;;;;;;;;;;;;10452840;28;20453;-71
2023/03/07 19:45:48;;;;;;;;;;;;;;;;;;10470014;28;19924;-73
2023/03/07 19:51:09;;;;;;;;;;;;;;;;;;10466693;28;19924;-73
2023/03/07 19:56:30;;;;;;;;;;;;;;;;;;10476217;28;19916;-72
2023/03/07 20:01:51;;;;;;;;;;;;;;;;;;10454455;28;19986;-73
2023/03/07 20:07:12;;;;;;;;;;;;;;;;;;10447504;28;20372;-72
2023/03/07 20:12:32;;;;;;;;;;;;;;;;;;10448182;28;19924;-73
2023/03/07 20:17:53;;;;;;;;;;;;;;;;;;10456737;28;19928;-72
2023/03/07 20:23:14;;;;;;;;;;;;;;;;;;10449768;28;19923;-73
2023/03/07 20:28:34;;;;;;;;;;;;;;;;;;10438639;28;19921;-73
2023/03/07 20:33:55;;;;;;;;;;;;;;;;;;10452178;28;19939;-73
2023/03/07 20:39:16;;;;;;;;;;;;;;;;;;10448619;28;19932;-72
2023/03/07 20:44:37;;;;;;;;;;;;;;;;;;10455423;28;19913;-72
2023/03/07 20:49:57;;;;;;;;;;;;;;;;;;10465576;28;19936;-72
2023/03/07 20:55:19;;;;;;;;;;;;;;;;;;10453662;28;19955;-72
2023/03/07 21:00:39;;;;;;;;;;;;;;;;;;10448185;28;19921;-72
2023/03/07 21:06:00;;;;;;;;;;;;;;;;;;10446776;28;19921;-72
2023/03/07 21:11:21;;;;;;;;;;;;;;;;;;10434164;28;19924;-72
2023/03/07 21:16:44;;;;;;;;;;;;;;;;;;10441911;28;20366;-73
2023/03/07 21:22:05;;;;;;;;;;;;;;;;;;10465587;28;20299;-73
2023/03/07 21:27:26;;;;;;;;;;;;;;;;;;10442555;28;20110;-73
2023/03/07 21:32:47;;;;;;;;;;;;;;;;;;10448648;28;19924;-73
2023/03/07 21:38:07;;;;;;;;;;;;;;;;;;10452478;28;19913;-73
2023/03/07 21:43:28;;;;;;;;;;;;;;;;;;10443845;28;19913;-73
2023/03/07 21:48:49;;;;;;;;;;;;;;;;;;10439124;28;19920;-73
2023/03/07 21:54:09;;;;;;;;;;;;;;;;;;10447522;28;19920;-73
2023/03/07 21:59:32;;;;;;;;;;;;;;;;;;10453792;28;21152;-73
2023/03/07 22:04:52;;;;;;;;;;;;;;;;;;10439167;28;19936;-73
2023/03/07 22:10:13;;;;;;;;;;;;;;;;;;10462570;28;19912;-72
2023/03/07 22:15:34;;;;;;;;;;;;;;;;;;10446366;28;19931;-72
2023/03/07 22:20:54;;;;;;;;;;;;;;;;;;10448123;28;19928;-73
2023/03/07 22:26:15;;;;;;;;;;;;;;;;;;10446771;28;21256;-72
2023/03/07 22:31:36;;;;;;;;;;;;;;;;;;10438167;28;19913;-72
2023/03/07 22:36:57;;;;;;;;;;;;;;;;;;10447238;28;19924;-73
2023/03/07 22:42:17;;;;;;;;;;;;;;;;;;10447408;28;19920;-73
2023/03/07 22:47:38;;;;;;;;;;;;;;;;;;10453159;28;19913;-73
2023/03/07 22:52:59;;;;;;;;;;;;;;;;;;10456597;28;19936;-73
2023/03/07 22:58:19;;;;;;;;;;;;;;;;;;10458815;28;19959;-73
2023/03/07 23:03:40;;;;;;;;;;;;;;;;;;10452543;28;20279;-73
2023/03/07 23:09:01;;;;;;;;;;;;;;;;;;10449404;28;19921;-73
2023/03/07 23:14:21;;;;;;;;;;;;;;;;;;10455527;28;19920;-73
2023/03/07 23:19:42;;;;;;;;;;;;;;;;;;10449477;28;19927;-73
2023/03/07 23:25:03;;;;;;;;;;;;;;;;;;10441565;28;19916;-73
2023/03/07 23:30:24;;;;;;;;;;;;;;;;;;10455280;28;19913;-73
2023/03/07 23:35:45;;;;;;;;;;;;;;;;;;10452658;28;19936;-73
2023/03/07 23:41:05;;;;;;;;;;;;;;;;;;10459152;28;20414;-73
2023/03/07 23:46:26;;;;;;;;;;;;;;;;;;10456909;28;20273;-74
2023/03/07 23:51:47;;;;;;;;;;;;;;;;;;10441058;28;19921;-73
2023/03/07 23:57:08;;;;;;;;;;;;;;;;;;10451468;28;19921;-73
